createdAt,value
2018-06-17T00:01:41.401Z,19.40
2018-06-17T00:03:46.015Z,19.40
2018-06-17T00:05:50.704Z,19.30
2018-06-17T00:07:55.531Z,19.30
2018-06-17T00:10:00.112Z,19.30
2018-06-17T00:12:05.022Z,19.30
2018-06-17T00:14:09.668Z,19.30
2018-06-17T00:16:14.660Z,19.20
2018-06-17T00:20:23.487Z,19.20
2018-06-17T00:22:28.098Z,19.20
2018-06-17T00:24:32.784Z,19.10
2018-06-17T00:26:37.397Z,19.10
2018-06-17T00:28:42.143Z,19.00
2018-06-17T00:30:46.768Z,19.00
2018-06-17T00:32:52.157Z,19.00
2018-06-17T00:34:56.719Z,19.00
2018-06-17T00:37:01.472Z,18.90
2018-06-17T00:39:09.127Z,18.90
2018-06-17T00:41:13.748Z,18.80
2018-06-17T00:43:18.381Z,18.80
2018-06-17T00:45:23.045Z,18.70
2018-06-17T00:47:27.613Z,18.70
2018-06-17T00:49:32.310Z,18.60
2018-06-17T00:51:36.895Z,18.60
2018-06-17T00:53:41.708Z,18.60
2018-06-17T00:55:46.267Z,18.50
2018-06-17T00:57:52.779Z,18.50
2018-06-17T00:59:57.364Z,18.40
2018-06-17T01:02:02.165Z,18.40
2018-06-17T01:04:06.794Z,18.30
2018-06-17T01:06:11.566Z,18.30
2018-06-17T01:08:16.138Z,18.30
2018-06-17T01:10:20.797Z,18.30
2018-06-17T01:12:25.485Z,18.20
2018-06-17T01:14:30.338Z,18.20
2018-06-17T01:16:35.044Z,18.20
2018-06-17T01:18:39.751Z,18.20
2018-06-17T01:20:44.418Z,18.10
2018-06-17T01:22:49.017Z,18.10
2018-06-17T01:24:53.738Z,18.00
2018-06-17T01:26:58.305Z,18.00
2018-06-17T01:29:02.917Z,18.00
2018-06-17T01:31:07.547Z,17.90
2018-06-17T01:33:12.295Z,17.90
2018-06-17T01:35:16.882Z,17.80
2018-06-17T01:37:21.826Z,17.80
2018-06-17T01:39:26.491Z,17.70
2018-06-17T01:41:31.250Z,17.70
2018-06-17T01:43:35.925Z,17.50
2018-06-17T01:45:40.660Z,17.50
2018-06-17T01:47:45.348Z,17.50
2018-06-17T01:49:50.069Z,17.50
2018-06-17T01:51:54.774Z,17.50
2018-06-17T01:53:59.517Z,17.50
2018-06-17T01:56:04.148Z,17.50
2018-06-17T01:58:08.904Z,17.40
2018-06-17T02:02:17.631Z,17.40
2018-06-17T02:04:27.342Z,17.30
2018-06-17T02:06:37.180Z,17.30
2018-06-17T02:08:50.019Z,17.20
2018-06-17T02:10:59.844Z,17.30
2018-06-17T02:13:04.572Z,17.20
2018-06-17T02:15:09.320Z,17.20
2018-06-17T02:17:14.020Z,17.20
2018-06-17T02:19:18.680Z,17.20
2018-06-17T02:21:23.287Z,17.20
2018-06-17T02:23:27.988Z,17.20
2018-06-17T02:25:33.464Z,17.20
2018-06-17T02:27:38.146Z,17.10
2018-06-17T02:29:42.760Z,17.10
2018-06-17T02:31:47.502Z,17.10
2018-06-17T02:33:52.339Z,17.10
2018-06-17T02:35:57.081Z,17.00
2018-06-17T02:38:01.708Z,17.00
2018-06-17T02:40:06.591Z,17.00
2018-06-17T02:42:11.156Z,16.90
2018-06-17T02:44:15.832Z,16.90
2018-06-17T02:48:32.215Z,16.90
2018-06-17T02:50:41.900Z,16.80
2018-06-17T02:52:51.740Z,16.70
2018-06-17T02:54:56.539Z,16.70
2018-06-17T02:57:01.269Z,16.60
2018-06-17T02:59:05.834Z,16.60
2018-06-17T03:01:10.400Z,16.50
2018-06-17T03:03:14.951Z,16.50
2018-06-17T03:05:19.755Z,16.50
2018-06-17T03:07:24.355Z,16.40
2018-06-17T03:09:29.073Z,16.40
2018-06-17T03:11:33.667Z,16.40
2018-06-17T03:13:38.337Z,16.40
2018-06-17T03:15:42.947Z,16.40
2018-06-17T03:17:47.615Z,16.40
2018-06-17T03:19:52.301Z,16.40
2018-06-17T03:21:56.981Z,16.40
2018-06-17T03:24:01.590Z,16.30
2018-06-17T03:26:11.475Z,16.30
2018-06-17T03:28:21.341Z,16.20
2018-06-17T03:30:31.350Z,16.20
2018-06-17T03:32:41.217Z,16.20
2018-06-17T03:34:47.945Z,16.10
2018-06-17T03:36:52.633Z,16.10
2018-06-17T03:38:57.385Z,16.10
2018-06-17T03:41:02.133Z,16.10
2018-06-17T03:43:06.926Z,16.10
2018-06-17T03:45:11.659Z,16.10
2018-06-17T03:47:16.271Z,16.10
2018-06-17T03:49:20.985Z,16.10
2018-06-17T03:51:25.624Z,16.10
2018-06-17T03:53:30.374Z,16.10
2018-06-17T03:55:35.012Z,16.00
2018-06-17T03:57:39.669Z,16.00
2018-06-17T03:59:44.305Z,16.00
2018-06-17T04:01:49.088Z,15.90
2018-06-17T04:05:57.953Z,15.80
2018-06-17T04:08:02.563Z,15.70
2018-06-17T04:10:07.354Z,15.70
2018-06-17T04:12:12.328Z,15.60
2018-06-17T04:14:16.951Z,15.60
2018-06-17T04:16:21.757Z,15.60
2018-06-17T04:18:26.447Z,15.50
2018-06-17T04:20:31.077Z,15.50
2018-06-17T04:22:35.860Z,15.60
2018-06-17T04:24:40.456Z,15.60
2018-06-17T04:26:45.222Z,15.60
2018-06-17T04:28:49.827Z,15.60
2018-06-17T04:30:54.559Z,15.70
2018-06-17T04:32:59.134Z,15.70
2018-06-17T04:35:03.976Z,15.80
2018-06-17T04:37:08.662Z,15.80
2018-06-17T04:39:13.372Z,15.90
2018-06-17T04:41:18.469Z,15.90
2018-06-17T04:43:23.087Z,15.90
2018-06-17T04:45:27.885Z,16.00
2018-06-17T04:47:32.567Z,16.00
2018-06-17T04:49:37.279Z,15.90
2018-06-17T04:51:41.922Z,15.90
2018-06-17T04:53:46.595Z,15.80
2018-06-17T04:55:51.238Z,15.70
2018-06-17T04:57:55.955Z,15.60
2018-06-17T05:00:00.595Z,15.60
2018-06-17T05:02:05.709Z,15.70
2018-06-17T05:04:10.448Z,15.70
2018-06-17T05:06:15.296Z,15.80
2018-06-17T05:08:19.882Z,15.80
2018-06-17T05:10:24.776Z,15.80
2018-06-17T05:12:29.720Z,15.80
2018-06-17T05:14:35.498Z,15.90
2018-06-17T05:16:40.150Z,15.90
2018-06-17T05:18:44.984Z,15.90
2018-06-17T05:20:49.639Z,16.00
2018-06-17T05:22:54.464Z,16.10
2018-06-17T05:24:59.083Z,16.30
2018-06-17T05:27:03.977Z,16.40
2018-06-17T05:29:08.598Z,16.50
2018-06-17T05:31:13.460Z,16.70
2018-06-17T05:33:18.082Z,16.80
2018-06-17T05:35:24.054Z,16.90
2018-06-17T05:37:28.726Z,17.10
2018-06-17T05:39:33.682Z,17.30
2018-06-17T05:41:38.409Z,17.50
2018-06-17T05:43:43.055Z,17.50
2018-06-17T05:45:47.729Z,17.50
2018-06-17T05:47:52.577Z,17.60
2018-06-17T05:49:57.175Z,17.60
2018-06-17T05:52:02.103Z,17.60
2018-06-17T05:54:06.905Z,17.60
2018-06-17T05:56:12.955Z,17.60
2018-06-17T05:58:17.541Z,17.70
2018-06-17T06:00:22.151Z,17.70
2018-06-17T06:02:27.080Z,17.80
2018-06-17T06:04:31.656Z,17.90
2018-06-17T06:06:36.527Z,17.90
2018-06-17T06:08:41.265Z,17.90
2018-06-17T06:10:45.904Z,18.00
2018-06-17T06:12:50.644Z,18.10
2018-06-17T06:14:55.337Z,18.20
2018-06-17T06:16:59.985Z,18.30
2018-06-17T06:19:04.756Z,18.60
2018-06-17T06:21:09.682Z,18.60
2018-06-17T06:23:15.659Z,18.70
2018-06-17T06:25:20.664Z,18.90
2018-06-17T06:27:25.618Z,18.90
2018-06-17T06:29:30.322Z,19.10
2018-06-17T06:31:34.968Z,19.20
2018-06-17T06:33:39.618Z,19.40
2018-06-17T06:35:44.614Z,19.50
2018-06-17T06:37:49.394Z,19.60
2018-06-17T06:42:15.164Z,19.60
2018-06-17T06:44:20.300Z,19.70
2018-06-17T06:46:27.003Z,19.60
2018-06-17T06:48:31.806Z,19.50
2018-06-17T06:50:36.456Z,19.60
2018-06-17T06:52:42.584Z,19.70
2018-06-17T06:54:55.144Z,19.70
2018-06-17T06:57:03.071Z,19.80
2018-06-17T06:59:07.748Z,19.80
2018-06-17T07:01:14.495Z,19.80
2018-06-17T07:03:34.929Z,19.80
2018-06-17T07:05:50.703Z,19.80
2018-06-17T07:08:06.477Z,20.00
2018-06-17T07:10:24.926Z,20.00
2018-06-17T07:12:30.027Z,20.20
2018-06-17T07:14:34.684Z,20.40
2018-06-17T07:16:52.276Z,20.60
2018-06-17T07:18:57.045Z,20.60
2018-06-17T07:21:01.777Z,20.80
2018-06-17T07:23:06.206Z,20.80
2018-06-17T07:25:21.257Z,20.80
2018-06-17T07:27:36.755Z,20.90
2018-06-17T07:29:43.975Z,20.90
2018-06-17T07:31:48.601Z,20.90
2018-06-17T07:33:54.290Z,20.80
2018-06-17T07:36:02.120Z,20.90
2018-06-17T07:38:06.899Z,20.90
2018-06-17T07:40:22.255Z,21.00
2018-06-17T07:42:27.227Z,21.20
2018-06-17T07:44:31.567Z,21.40
2018-06-17T07:46:36.099Z,21.40
2018-06-17T07:49:49.994Z,21.50
2018-06-17T07:52:09.616Z,21.50
2018-06-17T07:54:14.172Z,21.50
2018-06-17T07:56:18.593Z,21.60
2018-06-17T07:58:23.092Z,21.70
2018-06-17T08:00:27.582Z,21.80
2018-06-17T08:02:31.999Z,21.90
2018-06-17T08:04:36.427Z,21.70
2018-06-17T08:06:40.866Z,21.60
2018-06-17T08:08:45.199Z,21.50
2018-06-17T08:10:51.068Z,21.60
2018-06-17T08:12:55.584Z,21.60
2018-06-17T08:14:59.969Z,21.70
2018-06-17T08:17:30.631Z,21.90
2018-06-17T08:19:38.030Z,22.10
2018-06-17T08:21:42.639Z,22.20
2018-06-17T08:23:47.288Z,22.20
2018-06-17T08:25:51.933Z,22.30
2018-06-17T08:27:57.030Z,22.20
2018-06-17T08:30:01.519Z,22.20
2018-06-17T08:32:11.296Z,22.40
2018-06-17T08:34:16.081Z,22.60
2018-06-17T08:36:21.255Z,22.80
2018-06-17T08:38:25.656Z,22.80
2018-06-17T08:40:30.144Z,22.80
2018-06-17T08:42:34.747Z,23.00
2018-06-17T08:44:39.275Z,22.90
2018-06-17T08:46:44.396Z,22.90
2018-06-17T08:48:48.910Z,22.80
2018-06-17T08:50:54.218Z,22.70
2018-06-17T08:52:58.765Z,22.70
2018-06-17T08:55:03.128Z,22.70
2018-06-17T08:57:07.576Z,22.70
2018-06-17T08:59:11.929Z,22.90
2018-06-17T09:01:16.349Z,23.20
2018-06-17T09:03:20.757Z,23.30
2018-06-17T09:05:25.200Z,23.40
2018-06-17T09:07:29.518Z,23.50
2018-06-17T09:09:33.968Z,23.50
2018-06-17T09:11:38.331Z,23.30
2018-06-17T09:13:42.711Z,23.20
2018-06-17T09:15:47.085Z,23.30
2018-06-17T09:17:51.561Z,23.40
2018-06-17T09:19:55.927Z,23.30
2018-06-17T09:24:04.332Z,23.00
2018-06-17T09:26:08.776Z,22.90
2018-06-17T09:28:13.092Z,22.70
2018-06-17T09:30:17.926Z,22.60
2018-06-17T09:32:22.327Z,22.50
2018-06-17T09:34:26.677Z,22.50
2018-06-17T09:36:31.006Z,22.40
2018-06-17T09:38:35.441Z,22.50
2018-06-17T09:40:39.809Z,22.50
2018-06-17T09:42:44.185Z,22.40
2018-06-17T09:44:48.583Z,22.30
2018-06-17T09:46:53.041Z,22.30
2018-06-17T09:48:57.386Z,22.20
2018-06-17T09:51:01.811Z,22.20
2018-06-17T09:55:10.112Z,22.20
2018-06-17T09:57:14.466Z,22.20
2018-06-17T09:59:18.864Z,22.20
2018-06-17T10:01:23.187Z,22.30
2018-06-17T10:03:27.582Z,22.30
2018-06-17T10:05:31.959Z,22.30
2018-06-17T10:07:36.390Z,22.40
2018-06-17T10:09:53.308Z,22.50
2018-06-17T10:11:57.692Z,22.50
2018-06-17T10:14:02.354Z,22.60
2018-06-17T10:16:07.124Z,22.70
2018-06-17T10:18:12.313Z,22.80
2018-06-17T10:20:16.933Z,22.80
2018-06-17T10:22:21.760Z,23.00
2018-06-17T10:24:26.378Z,23.00
2018-06-17T10:26:31.058Z,23.00
2018-06-17T10:28:36.033Z,23.00
2018-06-17T10:30:42.109Z,23.00
2018-06-17T10:32:47.649Z,23.00
2018-06-17T10:34:52.338Z,23.20
2018-06-17T10:36:56.947Z,23.10
2018-06-17T10:39:01.606Z,23.10
2018-06-17T10:41:06.256Z,23.10
2018-06-17T10:43:14.028Z,23.10
2018-06-17T10:45:18.565Z,23.10
2018-06-17T10:47:23.229Z,23.00
2018-06-17T10:49:27.787Z,22.90
2018-06-17T10:51:32.350Z,22.80
2018-06-17T10:53:36.991Z,22.70
2018-06-17T10:55:43.730Z,22.80
2018-06-17T10:57:48.279Z,22.80
2018-06-17T10:59:52.910Z,22.80
2018-06-17T11:01:57.445Z,22.90
2018-06-17T11:04:02.836Z,22.80
2018-06-17T11:06:07.400Z,22.80
2018-06-17T11:08:12.019Z,22.90
2018-06-17T11:10:16.650Z,22.90
2018-06-17T11:12:22.372Z,23.00
2018-06-17T11:14:26.971Z,22.90
2018-06-17T11:16:31.689Z,22.90
2018-06-17T11:18:36.417Z,22.90
2018-06-17T11:20:43.505Z,22.90
2018-06-17T11:22:48.391Z,22.90
2018-06-17T11:24:52.952Z,23.00
2018-06-17T11:26:57.724Z,23.20
2018-06-17T11:29:02.363Z,23.30
2018-06-17T11:31:07.017Z,23.40
2018-06-17T11:33:11.644Z,23.50
2018-06-17T11:35:16.347Z,23.60
2018-06-17T11:37:21.917Z,23.80
2018-06-17T11:39:26.597Z,23.70
2018-06-17T11:41:31.202Z,23.70
2018-06-17T11:43:35.791Z,23.80
2018-06-17T11:45:40.505Z,23.70
2018-06-17T11:47:45.082Z,23.60
2018-06-17T11:49:54.803Z,23.50
2018-06-17T11:52:17.277Z,23.30
2018-06-17T11:54:21.918Z,23.10
2018-06-17T11:56:26.552Z,22.80
2018-06-17T11:58:31.094Z,22.60
2018-06-17T12:00:35.781Z,22.60
2018-06-17T12:04:44.613Z,22.40
2018-06-17T12:06:49.608Z,22.40
2018-06-17T12:08:54.182Z,22.40
2018-06-17T12:10:58.972Z,22.50
2018-06-17T12:13:03.609Z,22.50
2018-06-17T12:15:08.261Z,22.70
2018-06-17T12:17:12.840Z,22.80
2018-06-17T12:19:17.426Z,22.80
2018-06-17T12:21:22.011Z,22.90
2018-06-17T12:23:26.748Z,22.90
2018-06-17T12:25:34.369Z,22.50
2018-06-17T12:27:39.006Z,22.60
2018-06-17T12:29:43.576Z,22.50
2018-06-17T12:31:48.206Z,22.40
2018-06-17T12:33:52.967Z,22.30
2018-06-17T12:35:57.723Z,22.30
2018-06-17T12:38:02.563Z,22.20
2018-06-17T12:40:07.793Z,22.10
2018-06-17T12:42:12.691Z,22.20
2018-06-17T12:44:17.856Z,22.20
2018-06-17T12:46:22.747Z,22.20
2018-06-17T12:48:27.610Z,22.20
2018-06-17T12:50:34.154Z,22.20
2018-06-17T12:52:39.732Z,22.30
2018-06-17T12:54:44.594Z,22.30
2018-06-17T12:56:49.313Z,22.50
2018-06-17T12:58:54.011Z,22.60
2018-06-17T13:00:58.715Z,22.70
2018-06-17T13:03:04.023Z,22.70
2018-06-17T13:05:08.699Z,22.90
2018-06-17T13:07:13.402Z,22.80
2018-06-17T13:09:18.836Z,23.00
2018-06-17T13:11:23.565Z,23.20
2018-06-17T13:13:29.048Z,23.30
2018-06-17T13:15:34.904Z,23.30
2018-06-17T13:17:39.566Z,23.30
2018-06-17T13:19:44.288Z,23.30
2018-06-17T13:21:49.286Z,23.30
2018-06-17T13:23:53.973Z,23.30
2018-06-17T13:25:58.718Z,23.20
2018-06-17T13:28:03.924Z,23.00
2018-06-17T13:30:09.263Z,22.90
2018-06-17T13:32:13.907Z,22.80
2018-06-17T13:34:21.084Z,22.60
2018-06-17T13:36:26.012Z,22.50
2018-06-17T13:38:31.961Z,22.40
2018-06-17T13:40:36.590Z,22.30
2018-06-17T13:42:41.355Z,22.30
2018-06-17T13:44:47.616Z,22.30
2018-06-17T13:46:53.281Z,22.30
2018-06-17T13:48:58.605Z,22.30
2018-06-17T13:51:03.478Z,22.40
2018-06-17T13:53:08.093Z,22.50
2018-06-17T13:55:12.870Z,22.60
2018-06-17T13:57:17.570Z,22.80
2018-06-17T13:59:22.270Z,23.00
2018-06-17T14:01:27.061Z,23.00
2018-06-17T14:03:31.832Z,23.00
2018-06-17T14:05:36.436Z,22.80
2018-06-17T14:07:41.142Z,22.80
2018-06-17T14:09:45.807Z,22.80
2018-06-17T14:11:50.450Z,22.90
2018-06-17T14:13:55.106Z,22.90
2018-06-17T14:15:59.725Z,23.00
2018-06-17T14:18:04.559Z,22.90
2018-06-17T14:20:09.238Z,23.00
2018-06-17T14:22:15.567Z,23.00
2018-06-17T14:24:20.300Z,22.80
2018-06-17T14:28:29.064Z,22.60
2018-06-17T14:30:33.699Z,22.60
2018-06-17T14:32:38.313Z,22.60
2018-06-17T14:34:43.087Z,22.60
2018-06-17T14:36:47.688Z,22.50
2018-06-17T14:38:52.338Z,22.50
2018-06-17T14:41:02.105Z,22.40
2018-06-17T14:43:12.008Z,22.30
2018-06-17T14:47:31.638Z,22.20
2018-06-17T14:49:41.512Z,22.10
2018-06-17T14:51:51.628Z,22.10
2018-06-17T14:53:56.285Z,22.10
2018-06-17T14:56:00.881Z,22.10
2018-06-17T14:58:05.912Z,22.00
2018-06-17T15:00:10.688Z,22.00
2018-06-17T15:02:15.308Z,22.00
2018-06-17T15:04:19.963Z,21.90
2018-06-17T15:06:24.484Z,21.80
2018-06-17T15:08:29.227Z,21.70
2018-06-17T15:10:33.793Z,21.70
2018-06-17T15:12:38.603Z,21.70
2018-06-17T15:14:43.289Z,21.70
2018-06-17T15:16:47.943Z,21.70
2018-06-17T15:18:52.562Z,21.80
2018-06-17T15:20:57.246Z,21.80
2018-06-17T15:23:01.819Z,21.80
2018-06-17T15:25:06.493Z,21.80
2018-06-17T15:27:11.110Z,21.90
2018-06-17T15:29:15.671Z,21.90
2018-06-17T15:31:25.451Z,21.90
2018-06-17T15:33:35.301Z,21.90
2018-06-17T15:35:45.322Z,21.90
2018-06-17T15:37:55.546Z,21.90
2018-06-17T15:40:03.547Z,22.00
2018-06-17T15:42:11.387Z,21.90
2018-06-17T15:44:21.967Z,21.80
2018-06-17T15:46:28.966Z,21.70
2018-06-17T15:48:34.693Z,21.70
2018-06-17T15:50:41.895Z,21.50
2018-06-17T15:52:46.525Z,21.40
2018-06-17T15:54:53.386Z,21.30
2018-06-17T15:56:59.336Z,21.30
2018-06-17T15:59:06.097Z,21.20
2018-06-17T16:01:10.892Z,21.20
2018-06-17T16:03:16.100Z,21.10
2018-06-17T16:05:22.033Z,21.10
2018-06-17T16:07:27.232Z,21.00
2018-06-17T16:09:31.829Z,21.00
2018-06-17T16:11:40.709Z,20.90
2018-06-17T16:13:50.374Z,20.90
2018-06-17T16:16:00.221Z,20.80
2018-06-17T16:18:11.592Z,20.80
2018-06-17T16:20:21.397Z,20.80
2018-06-17T16:22:26.100Z,20.90
2018-06-17T16:24:30.850Z,20.90
2018-06-17T16:26:35.639Z,20.80
2018-06-17T16:28:40.211Z,20.80
2018-06-17T16:30:44.937Z,20.80
2018-06-17T16:32:49.517Z,20.80
2018-06-17T16:34:54.323Z,20.80
2018-06-17T16:36:58.909Z,20.80
2018-06-17T16:39:04.153Z,20.90
2018-06-17T16:41:08.770Z,20.90
2018-06-17T16:43:13.495Z,20.90
2018-06-17T16:45:18.196Z,21.00
2018-06-17T16:47:23.044Z,21.00
2018-06-17T16:49:28.712Z,21.10
2018-06-17T16:51:38.543Z,21.20
2018-06-17T16:53:50.295Z,21.30
2018-06-17T16:56:00.077Z,21.40
2018-06-17T17:00:19.803Z,21.40
2018-06-17T17:04:28.670Z,21.40
2018-06-17T17:06:33.297Z,21.40
2018-06-17T17:08:39.477Z,21.50
2018-06-17T17:10:44.098Z,21.60
2018-06-17T17:12:48.727Z,21.70
2018-06-17T17:14:53.317Z,21.70
2018-06-17T17:16:58.035Z,21.60
2018-06-17T17:19:03.269Z,21.50
2018-06-17T17:21:14.116Z,21.30
2018-06-17T17:23:18.940Z,21.20
2018-06-17T17:25:23.827Z,21.20
2018-06-17T17:27:28.961Z,21.20
2018-06-17T17:29:33.606Z,21.30
2018-06-17T17:31:44.635Z,21.30
2018-06-17T17:36:03.059Z,21.40
2018-06-17T17:38:13.922Z,21.40
2018-06-17T17:40:23.704Z,21.30
2018-06-17T17:42:28.721Z,21.30
2018-06-17T17:44:39.019Z,21.20
2018-06-17T17:46:49.533Z,21.10
2018-06-17T17:48:55.429Z,21.10
2018-06-17T17:51:00.904Z,21.00
2018-06-17T17:53:06.737Z,20.90
2018-06-17T17:57:16.197Z,20.80
2018-06-17T17:59:21.471Z,20.70
2018-06-17T18:01:27.075Z,20.70
2018-06-17T18:03:32.208Z,20.50
2018-06-17T18:05:45.483Z,20.40
2018-06-17T18:07:56.095Z,20.30
2018-06-17T18:10:00.796Z,20.20
2018-06-17T18:12:05.544Z,20.30
2018-06-17T18:14:11.206Z,20.10
2018-06-17T18:16:26.652Z,20.10
2018-06-17T18:18:41.090Z,20.10
2018-06-17T18:20:52.964Z,20.00
2018-06-17T18:23:02.516Z,20.00
2018-06-17T18:25:15.016Z,19.90
2018-06-17T18:27:25.323Z,19.90
2018-06-17T18:29:35.080Z,19.90
2018-06-17T18:31:44.930Z,19.90
2018-06-17T18:33:54.616Z,19.90
2018-06-17T18:36:04.409Z,19.80
2018-06-17T18:38:09.101Z,19.80
2018-06-17T18:40:13.800Z,19.70
2018-06-17T18:42:18.723Z,19.70
2018-06-17T18:44:23.402Z,19.70
2018-06-17T18:46:27.982Z,19.60
2018-06-17T18:48:32.664Z,19.60
2018-06-17T18:50:37.397Z,19.60
2018-06-17T18:52:42.050Z,19.50
2018-06-17T18:54:46.648Z,19.50
2018-06-17T18:56:56.755Z,19.50
2018-06-17T18:59:07.426Z,19.50
2018-06-17T19:01:15.214Z,19.40
2018-06-17T19:03:23.254Z,19.50
2018-06-17T19:05:29.715Z,19.40
2018-06-17T19:07:41.990Z,19.40
2018-06-17T19:09:52.948Z,19.40
2018-06-17T19:12:06.052Z,19.30
2018-06-17T19:14:17.750Z,19.20
2018-06-17T19:16:28.837Z,19.20
2018-06-17T19:18:36.423Z,19.10
2018-06-17T19:20:42.268Z,19.10
2018-06-17T19:22:49.277Z,19.10
2018-06-17T19:24:54.081Z,19.00
2018-06-17T19:26:58.693Z,19.00
2018-06-17T19:29:03.481Z,19.00
2018-06-17T19:31:08.285Z,18.90
2018-06-17T19:33:12.996Z,18.90
2018-06-17T19:35:17.850Z,18.90
2018-06-17T19:37:23.336Z,18.90
2018-06-17T19:39:27.974Z,18.90
2018-06-17T19:41:32.549Z,18.90
2018-06-17T19:43:37.137Z,18.80
2018-06-17T19:45:41.809Z,18.80
2018-06-17T19:47:46.504Z,18.70
2018-06-17T19:49:57.191Z,18.70
2018-06-17T19:52:07.194Z,18.70
2018-06-17T19:55:20.563Z,18.70
2018-06-17T19:57:30.301Z,18.70
2018-06-17T19:59:39.983Z,18.70
2018-06-17T20:01:44.781Z,18.70
2018-06-17T20:03:49.625Z,18.70
2018-06-17T20:05:54.847Z,18.70
2018-06-17T20:07:59.649Z,18.70
2018-06-17T20:10:04.711Z,18.60
2018-06-17T20:12:09.407Z,18.60
2018-06-17T20:14:13.959Z,18.60
2018-06-17T20:16:19.383Z,18.60
2018-06-17T20:18:24.101Z,18.50
2018-06-17T20:20:28.679Z,18.50
2018-06-17T20:22:33.437Z,18.50
2018-06-17T20:24:38.035Z,18.50
2018-06-17T20:26:42.781Z,18.50
2018-06-17T20:28:47.463Z,18.50
2018-06-17T20:30:52.064Z,18.50
2018-06-17T20:33:01.984Z,18.40
2018-06-17T20:35:11.838Z,18.40
2018-06-17T20:37:21.757Z,18.30
2018-06-17T20:39:31.572Z,18.30
2018-06-17T20:41:41.577Z,18.20
2018-06-17T20:43:52.805Z,18.10
2018-06-17T20:45:57.914Z,18.10
2018-06-17T20:48:02.547Z,18.10
2018-06-17T20:50:07.095Z,18.10
2018-06-17T20:52:11.673Z,18.00
2018-06-17T20:54:16.256Z,18.00
2018-06-17T20:56:20.857Z,18.00
2018-06-17T20:58:25.503Z,18.00
2018-06-17T21:00:30.059Z,18.00
2018-06-17T21:02:34.686Z,18.00
2018-06-17T21:04:41.603Z,18.00
2018-06-17T21:06:46.147Z,18.00
2018-06-17T21:08:50.747Z,18.00
2018-06-17T21:10:55.801Z,18.00
2018-06-17T21:13:04.575Z,17.90
2018-06-17T21:15:14.419Z,17.90
2018-06-17T21:17:19.079Z,17.90
2018-06-17T21:19:28.951Z,17.80
2018-06-17T21:21:38.915Z,17.70
2018-06-17T21:23:48.753Z,17.60
2018-06-17T21:25:58.568Z,17.60
2018-06-17T21:28:03.280Z,17.60
2018-06-17T21:30:07.896Z,17.60
2018-06-17T21:32:12.783Z,17.50
2018-06-17T21:34:17.379Z,17.50
2018-06-17T21:36:21.954Z,17.50
2018-06-17T21:38:26.736Z,17.50
2018-06-17T21:40:31.337Z,17.50
2018-06-17T21:42:35.914Z,17.50
2018-06-17T21:44:40.552Z,17.40
2018-06-17T21:46:45.164Z,17.40
2018-06-17T21:48:49.817Z,17.30
2018-06-17T21:50:54.431Z,17.20
2018-06-17T21:52:59.070Z,17.20
2018-06-17T21:55:03.777Z,17.10
2018-06-17T21:57:08.388Z,17.00
2018-06-17T21:59:13.016Z,17.00
2018-06-17T22:01:19.188Z,17.00
2018-06-17T22:03:23.846Z,17.00
2018-06-17T22:05:28.505Z,16.90
2018-06-17T22:07:33.160Z,16.90
2018-06-17T22:09:43.040Z,16.90
2018-06-17T22:11:52.965Z,16.80
2018-06-17T22:14:02.945Z,16.90
2018-06-17T22:16:12.879Z,16.90
2018-06-17T22:18:17.476Z,16.90
2018-06-17T22:20:22.377Z,16.90
2018-06-17T22:22:26.960Z,16.90
2018-06-17T22:24:31.598Z,16.90
2018-06-17T22:26:36.228Z,16.90
2018-06-17T22:28:40.919Z,16.90
2018-06-17T22:30:45.570Z,16.90
2018-06-17T22:32:50.450Z,16.90
2018-06-17T22:34:55.167Z,16.90
2018-06-17T22:36:59.798Z,16.90
2018-06-17T22:39:06.456Z,16.80
2018-06-17T22:41:11.090Z,16.80
2018-06-17T22:43:15.761Z,16.80
2018-06-17T22:45:20.388Z,16.80
2018-06-17T22:47:30.222Z,16.70
2018-06-17T22:49:34.883Z,16.80
2018-06-17T22:51:39.841Z,16.70
2018-06-17T22:53:55.533Z,16.70
2018-06-17T22:56:00.263Z,16.70
2018-06-17T22:58:10.001Z,16.70
2018-06-17T23:00:19.952Z,16.60
2018-06-17T23:02:29.962Z,16.70
2018-06-17T23:04:39.843Z,16.60
2018-06-17T23:06:49.716Z,16.60
2018-06-17T23:08:59.676Z,16.60
2018-06-17T23:11:04.354Z,16.60
2018-06-17T23:13:09.058Z,16.60
2018-06-17T23:15:13.727Z,16.60
2018-06-17T23:17:18.338Z,16.50
2018-06-17T23:19:23.049Z,16.60
2018-06-17T23:21:27.684Z,16.60
2018-06-17T23:23:32.258Z,16.60
2018-06-17T23:25:36.890Z,16.60
2018-06-17T23:27:41.524Z,16.60
2018-06-17T23:29:46.141Z,16.60
2018-06-17T23:31:50.771Z,16.50
2018-06-17T23:33:55.594Z,16.50
2018-06-17T23:36:00.237Z,16.50
2018-06-17T23:38:04.963Z,16.50
2018-06-17T23:40:09.519Z,16.50
2018-06-17T23:42:14.179Z,16.50
2018-06-17T23:44:18.730Z,16.50
2018-06-17T23:46:28.570Z,16.50
2018-06-17T23:48:38.288Z,16.50
2018-06-17T23:50:48.211Z,16.50
2018-06-17T23:52:57.925Z,16.50
2018-06-17T23:55:07.830Z,16.50
2018-06-17T23:57:12.555Z,16.50
2018-06-17T23:59:17.169Z,16.50
